sensor_id;sensor_type;location;lat;lon;timestamp;P1;durP1;ratioP1;P2;durP2;ratioP2
65328;SDS011;51941;52.210;5.158;2023-07-31T00:00:47;1.20;;;0.75;;
65328;SDS011;51941;52.210;5.158;2023-07-31T00:03:14;1.98;;;0.85;;
65328;SDS011;51941;52.210;5.158;2023-07-31T00:05:40;2.05;;;1.00;;
65328;SDS011;51941;52.210;5.158;2023-07-31T00:08:07;3.95;;;1.38;;
65328;SDS011;51941;52.210;5.158;2023-07-31T00:10:34;2.67;;;1.00;;
65328;SDS011;51941;52.210;5.158;2023-07-31T00:13:02;4.25;;;1.30;;
65328;SDS011;51941;52.210;5.158;2023-07-31T00:15:29;6.35;;;1.52;;
65328;SDS011;51941;52.210;5.158;2023-07-31T00:17:56;5.75;;;1.80;;
65328;SDS011;51941;52.210;5.158;2023-07-31T00:20:23;3.88;;;1.67;;
65328;SDS011;51941;52.210;5.158;2023-07-31T00:22:49;2.13;;;1.27;;
65328;SDS011;51941;52.210;5.158;2023-07-31T00:25:16;4.95;;;1.50;;
65328;SDS011;51941;52.210;5.158;2023-07-31T00:27:43;3.55;;;1.50;;
65328;SDS011;51941;52.210;5.158;2023-07-31T00:30:12;4.82;;;1.95;;
65328;SDS011;51941;52.210;5.158;2023-07-31T00:32:39;6.05;;;2.45;;
65328;SDS011;51941;52.210;5.158;2023-07-31T00:35:06;7.57;;;3.40;;
65328;SDS011;51941;52.210;5.158;2023-07-31T00:37:33;10.52;;;3.92;;
65328;SDS011;51941;52.210;5.158;2023-07-31T00:39:59;18.42;;;5.13;;
65328;SDS011;51941;52.210;5.158;2023-07-31T00:42:29;19.40;;;5.35;;
65328;SDS011;51941;52.210;5.158;2023-07-31T00:44:55;18.92;;;5.40;;
65328;SDS011;51941;52.210;5.158;2023-07-31T00:47:24;16.65;;;5.13;;
65328;SDS011;51941;52.210;5.158;2023-07-31T00:49:51;18.88;;;5.72;;
65328;SDS011;51941;52.210;5.158;2023-07-31T00:52:19;17.75;;;5.03;;
65328;SDS011;51941;52.210;5.158;2023-07-31T00:54:46;13.55;;;4.53;;
65328;SDS011;51941;52.210;5.158;2023-07-31T00:57:14;16.83;;;4.20;;
65328;SDS011;51941;52.210;5.158;2023-07-31T00:59:41;10.27;;;3.40;;
65328;SDS011;51941;52.210;5.158;2023-07-31T01:02:08;11.25;;;3.42;;
65328;SDS011;51941;52.210;5.158;2023-07-31T01:04:36;10.10;;;3.13;;
65328;SDS011;51941;52.210;5.158;2023-07-31T01:07:05;8.48;;;3.30;;
65328;SDS011;51941;52.210;5.158;2023-07-31T01:09:40;9.65;;;3.13;;
65328;SDS011;51941;52.210;5.158;2023-07-31T01:12:12;7.93;;;2.55;;
65328;SDS011;51941;52.210;5.158;2023-07-31T01:14:44;8.30;;;2.65;;
65328;SDS011;51941;52.210;5.158;2023-07-31T01:17:17;6.28;;;2.95;;
65328;SDS011;51941;52.210;5.158;2023-07-31T01:19:45;5.68;;;2.20;;
65328;SDS011;51941;52.210;5.158;2023-07-31T01:22:28;5.03;;;2.30;;
65328;SDS011;51941;52.210;5.158;2023-07-31T01:25:06;5.55;;;2.15;;
65328;SDS011;51941;52.210;5.158;2023-07-31T01:27:49;5.80;;;2.30;;
65328;SDS011;51941;52.210;5.158;2023-07-31T01:30:25;5.25;;;2.17;;
65328;SDS011;51941;52.210;5.158;2023-07-31T01:32:58;5.93;;;2.30;;
65328;SDS011;51941;52.210;5.158;2023-07-31T01:35:27;11.82;;;2.78;;
65328;SDS011;51941;52.210;5.158;2023-07-31T01:37:55;6.20;;;2.03;;
65328;SDS011;51941;52.210;5.158;2023-07-31T01:40:22;7.45;;;2.70;;
65328;SDS011;51941;52.210;5.158;2023-07-31T01:42:50;4.63;;;2.30;;
65328;SDS011;51941;52.210;5.158;2023-07-31T01:45:17;5.50;;;2.30;;
65328;SDS011;51941;52.210;5.158;2023-07-31T01:47:44;12.95;;;3.75;;
65328;SDS011;51941;52.210;5.158;2023-07-31T01:50:11;12.55;;;4.10;;
65328;SDS011;51941;52.210;5.158;2023-07-31T01:52:38;19.48;;;4.57;;
65328;SDS011;51941;52.210;5.158;2023-07-31T01:55:04;20.35;;;5.32;;
65328;SDS011;51941;52.210;5.158;2023-07-31T01:57:31;22.10;;;5.95;;
65328;SDS011;51941;52.210;5.158;2023-07-31T02:00:00;18.40;;;4.95;;
65328;SDS011;51941;52.210;5.158;2023-07-31T02:02:37;19.58;;;5.53;;
65328;SDS011;51941;52.210;5.158;2023-07-31T02:05:04;17.15;;;5.70;;
65328;SDS011;51941;52.210;5.158;2023-07-31T02:07:31;21.30;;;6.57;;
65328;SDS011;51941;52.210;5.158;2023-07-31T02:09:58;18.30;;;5.45;;
65328;SDS011;51941;52.210;5.158;2023-07-31T02:12:25;19.48;;;5.90;;
65328;SDS011;51941;52.210;5.158;2023-07-31T02:14:52;19.88;;;5.35;;
65328;SDS011;51941;52.210;5.158;2023-07-31T02:17:20;21.92;;;5.68;;
65328;SDS011;51941;52.210;5.158;2023-07-31T02:19:46;23.45;;;6.22;;
65328;SDS011;51941;52.210;5.158;2023-07-31T02:22:13;18.92;;;5.75;;
65328;SDS011;51941;52.210;5.158;2023-07-31T02:24:40;26.42;;;5.57;;
65328;SDS011;51941;52.210;5.158;2023-07-31T02:27:07;21.33;;;5.70;;
65328;SDS011;51941;52.210;5.158;2023-07-31T02:29:33;19.60;;;6.03;;
65328;SDS011;51941;52.210;5.158;2023-07-31T02:32:00;20.02;;;5.88;;
65328;SDS011;51941;52.210;5.158;2023-07-31T02:34:28;19.52;;;5.85;;
65328;SDS011;51941;52.210;5.158;2023-07-31T02:36:55;19.40;;;5.15;;
65328;SDS011;51941;52.210;5.158;2023-07-31T02:39:22;26.98;;;6.78;;
65328;SDS011;51941;52.210;5.158;2023-07-31T02:41:49;21.20;;;5.60;;
65328;SDS011;51941;52.210;5.158;2023-07-31T02:44:16;26.92;;;5.80;;
65328;SDS011;51941;52.210;5.158;2023-07-31T02:46:43;26.23;;;6.72;;
65328;SDS011;51941;52.210;5.158;2023-07-31T02:49:11;23.45;;;6.47;;
65328;SDS011;51941;52.210;5.158;2023-07-31T02:51:39;29.27;;;5.97;;
65328;SDS011;51941;52.210;5.158;2023-07-31T02:54:06;27.08;;;6.63;;
65328;SDS011;51941;52.210;5.158;2023-07-31T02:56:33;20.48;;;5.70;;
65328;SDS011;51941;52.210;5.158;2023-07-31T02:58:59;22.05;;;5.88;;
65328;SDS011;51941;52.210;5.158;2023-07-31T03:01:26;31.15;;;6.93;;
65328;SDS011;51941;52.210;5.158;2023-07-31T03:03:53;28.85;;;6.25;;
65328;SDS011;51941;52.210;5.158;2023-07-31T03:06:20;28.65;;;7.45;;
65328;SDS011;51941;52.210;5.158;2023-07-31T03:08:47;24.98;;;6.88;;
65328;SDS011;51941;52.210;5.158;2023-07-31T03:11:14;21.17;;;6.45;;
65328;SDS011;51941;52.210;5.158;2023-07-31T03:13:40;23.27;;;6.20;;
65328;SDS011;51941;52.210;5.158;2023-07-31T03:16:07;28.35;;;6.47;;
65328;SDS011;51941;52.210;5.158;2023-07-31T03:18:34;32.17;;;6.53;;
65328;SDS011;51941;52.210;5.158;2023-07-31T03:21:01;21.90;;;6.03;;
65328;SDS011;51941;52.210;5.158;2023-07-31T03:23:27;22.45;;;6.28;;
65328;SDS011;51941;52.210;5.158;2023-07-31T03:25:59;27.90;;;7.13;;
65328;SDS011;51941;52.210;5.158;2023-07-31T03:28:28;26.55;;;6.78;;
65328;SDS011;51941;52.210;5.158;2023-07-31T03:30:55;22.70;;;6.25;;
65328;SDS011;51941;52.210;5.158;2023-07-31T03:33:22;30.27;;;7.40;;
65328;SDS011;51941;52.210;5.158;2023-07-31T03:35:50;21.90;;;6.97;;
65328;SDS011;51941;52.210;5.158;2023-07-31T03:38:17;28.67;;;6.53;;
65328;SDS011;51941;52.210;5.158;2023-07-31T03:40:43;20.00;;;5.85;;
65328;SDS011;51941;52.210;5.158;2023-07-31T03:43:12;16.02;;;5.32;;
65328;SDS011;51941;52.210;5.158;2023-07-31T03:45:38;26.05;;;7.00;;
65328;SDS011;51941;52.210;5.158;2023-07-31T03:48:05;25.85;;;6.55;;
65328;SDS011;51941;52.210;5.158;2023-07-31T03:50:33;22.40;;;5.35;;
65328;SDS011;51941;52.210;5.158;2023-07-31T03:53:00;24.33;;;5.97;;
65328;SDS011;51941;52.210;5.158;2023-07-31T03:55:27;18.55;;;5.38;;
65328;SDS011;51941;52.210;5.158;2023-07-31T03:57:54;21.27;;;5.78;;
65328;SDS011;51941;52.210;5.158;2023-07-31T04:00:22;20.98;;;5.53;;
65328;SDS011;51941;52.210;5.158;2023-07-31T04:02:49;20.92;;;5.35;;
65328;SDS011;51941;52.210;5.158;2023-07-31T04:05:15;19.30;;;5.68;;
65328;SDS011;51941;52.210;5.158;2023-07-31T04:07:42;18.58;;;5.53;;
65328;SDS011;51941;52.210;5.158;2023-07-31T04:10:09;21.88;;;5.97;;
65328;SDS011;51941;52.210;5.158;2023-07-31T04:12:36;20.25;;;4.88;;
65328;SDS011;51941;52.210;5.158;2023-07-31T04:15:03;19.83;;;5.85;;
65328;SDS011;51941;52.210;5.158;2023-07-31T04:17:31;18.38;;;5.80;;
65328;SDS011;51941;52.210;5.158;2023-07-31T04:19:58;20.80;;;5.15;;
65328;SDS011;51941;52.210;5.158;2023-07-31T04:22:25;19.98;;;5.18;;
65328;SDS011;51941;52.210;5.158;2023-07-31T04:24:51;22.30;;;5.32;;
65328;SDS011;51941;52.210;5.158;2023-07-31T04:27:18;20.40;;;5.15;;
65328;SDS011;51941;52.210;5.158;2023-07-31T04:29:45;16.73;;;5.53;;
65328;SDS011;51941;52.210;5.158;2023-07-31T04:32:12;17.85;;;5.47;;
65328;SDS011;51941;52.210;5.158;2023-07-31T04:34:42;18.23;;;5.00;;
65328;SDS011;51941;52.210;5.158;2023-07-31T04:37:09;24.95;;;5.82;;
65328;SDS011;51941;52.210;5.158;2023-07-31T04:39:35;17.98;;;5.68;;
65328;SDS011;51941;52.210;5.158;2023-07-31T04:42:03;14.18;;;5.68;;
65328;SDS011;51941;52.210;5.158;2023-07-31T04:44:29;15.50;;;5.38;;
65328;SDS011;51941;52.210;5.158;2023-07-31T04:46:56;17.70;;;5.85;;
65328;SDS011;51941;52.210;5.158;2023-07-31T04:49:23;15.00;;;5.22;;
65328;SDS011;51941;52.210;5.158;2023-07-31T04:51:51;17.15;;;5.50;;
65328;SDS011;51941;52.210;5.158;2023-07-31T04:54:18;14.93;;;5.20;;
65328;SDS011;51941;52.210;5.158;2023-07-31T04:56:45;12.82;;;5.15;;
65328;SDS011;51941;52.210;5.158;2023-07-31T04:59:12;14.98;;;5.63;;
65328;SDS011;51941;52.210;5.158;2023-07-31T05:01:39;11.70;;;4.55;;
65328;SDS011;51941;52.210;5.158;2023-07-31T05:04:06;10.70;;;4.53;;
65328;SDS011;51941;52.210;5.158;2023-07-31T05:06:32;10.65;;;4.40;;
65328;SDS011;51941;52.210;5.158;2023-07-31T05:09:00;9.52;;;4.25;;
65328;SDS011;51941;52.210;5.158;2023-07-31T05:11:27;10.43;;;4.22;;
65328;SDS011;51941;52.210;5.158;2023-07-31T05:13:54;9.93;;;4.07;;
65328;SDS011;51941;52.210;5.158;2023-07-31T05:16:21;7.72;;;3.72;;
65328;SDS011;51941;52.210;5.158;2023-07-31T05:18:48;10.45;;;3.72;;
65328;SDS011;51941;52.210;5.158;2023-07-31T05:21:14;9.77;;;4.30;;
65328;SDS011;51941;52.210;5.158;2023-07-31T05:23:41;7.50;;;3.70;;
65328;SDS011;51941;52.210;5.158;2023-07-31T05:26:09;9.27;;;4.07;;
65328;SDS011;51941;52.210;5.158;2023-07-31T05:28:36;5.25;;;3.30;;
65328;SDS011;51941;52.210;5.158;2023-07-31T05:31:03;6.00;;;2.97;;
65328;SDS011;51941;52.210;5.158;2023-07-31T05:33:31;5.60;;;3.37;;
65328;SDS011;51941;52.210;5.158;2023-07-31T05:35:58;8.20;;;3.35;;
65328;SDS011;51941;52.210;5.158;2023-07-31T05:38:25;6.70;;;3.00;;
65328;SDS011;51941;52.210;5.158;2023-07-31T05:40:52;6.00;;;2.67;;
65328;SDS011;51941;52.210;5.158;2023-07-31T05:43:21;4.35;;;2.55;;
65328;SDS011;51941;52.210;5.158;2023-07-31T05:45:47;7.15;;;3.03;;
65328;SDS011;51941;52.210;5.158;2023-07-31T05:48:14;5.15;;;2.75;;
65328;SDS011;51941;52.210;5.158;2023-07-31T05:50:41;7.05;;;3.05;;
65328;SDS011;51941;52.210;5.158;2023-07-31T05:53:09;7.43;;;2.92;;
65328;SDS011;51941;52.210;5.158;2023-07-31T05:55:36;5.50;;;3.22;;
65328;SDS011;51941;52.210;5.158;2023-07-31T05:58:03;7.13;;;2.88;;
65328;SDS011;51941;52.210;5.158;2023-07-31T06:00:31;5.90;;;2.25;;
65328;SDS011;51941;52.210;5.158;2023-07-31T06:02:58;4.97;;;2.80;;
65328;SDS011;51941;52.210;5.158;2023-07-31T06:05:24;7.65;;;2.72;;
65328;SDS011;51941;52.210;5.158;2023-07-31T06:07:53;7.13;;;3.17;;
65328;SDS011;51941;52.210;5.158;2023-07-31T06:10:20;6.68;;;3.05;;
65328;SDS011;51941;52.210;5.158;2023-07-31T06:12:47;6.15;;;3.10;;
65328;SDS011;51941;52.210;5.158;2023-07-31T06:15:14;6.10;;;3.00;;
65328;SDS011;51941;52.210;5.158;2023-07-31T06:17:42;5.57;;;2.60;;
65328;SDS011;51941;52.210;5.158;2023-07-31T06:20:09;7.90;;;2.72;;
65328;SDS011;51941;52.210;5.158;2023-07-31T06:22:36;5.43;;;2.50;;
65328;SDS011;51941;52.210;5.158;2023-07-31T06:25:03;4.85;;;2.55;;
65328;SDS011;51941;52.210;5.158;2023-07-31T06:27:30;4.00;;;2.30;;
65328;SDS011;51941;52.210;5.158;2023-07-31T06:29:57;6.53;;;2.70;;
65328;SDS011;51941;52.210;5.158;2023-07-31T06:32:24;7.88;;;2.65;;
65328;SDS011;51941;52.210;5.158;2023-07-31T06:34:52;6.50;;;2.40;;
65328;SDS011;51941;52.210;5.158;2023-07-31T06:39:47;6.05;;;2.35;;
65328;SDS011;51941;52.210;5.158;2023-07-31T06:42:13;4.68;;;2.13;;
65328;SDS011;51941;52.210;5.158;2023-07-31T06:44:40;6.63;;;2.13;;
65328;SDS011;51941;52.210;5.158;2023-07-31T06:47:07;5.93;;;1.90;;
65328;SDS011;51941;52.210;5.158;2023-07-31T06:49:34;4.00;;;1.85;;
65328;SDS011;51941;52.210;5.158;2023-07-31T06:52:02;4.70;;;2.00;;
65328;SDS011;51941;52.210;5.158;2023-07-31T06:54:29;4.13;;;2.00;;
65328;SDS011;51941;52.210;5.158;2023-07-31T06:56:56;2.30;;;1.60;;
65328;SDS011;51941;52.210;5.158;2023-07-31T06:59:23;3.10;;;1.92;;
65328;SDS011;51941;52.210;5.158;2023-07-31T07:01:49;2.13;;;1.50;;
65328;SDS011;51941;52.210;5.158;2023-07-31T07:04:16;3.22;;;1.50;;
65328;SDS011;51941;52.210;5.158;2023-07-31T07:06:43;2.65;;;1.70;;
65328;SDS011;51941;52.210;5.158;2023-07-31T07:09:11;3.20;;;1.73;;
65328;SDS011;51941;52.210;5.158;2023-07-31T07:11:38;6.78;;;1.95;;
65328;SDS011;51941;52.210;5.158;2023-07-31T07:14:04;2.25;;;1.30;;
65328;SDS011;51941;52.210;5.158;2023-07-31T07:16:31;3.38;;;1.50;;
65328;SDS011;51941;52.210;5.158;2023-07-31T07:18:58;3.60;;;1.55;;
65328;SDS011;51941;52.210;5.158;2023-07-31T07:21:25;4.43;;;1.60;;
65328;SDS011;51941;52.210;5.158;2023-07-31T07:23:51;2.60;;;1.60;;
65328;SDS011;51941;52.210;5.158;2023-07-31T07:26:19;1.35;;;1.02;;
65328;SDS011;51941;52.210;5.158;2023-07-31T07:28:46;1.80;;;1.20;;
65328;SDS011;51941;52.210;5.158;2023-07-31T07:31:13;2.80;;;1.13;;
65328;SDS011;51941;52.210;5.158;2023-07-31T07:33:40;1.58;;;1.00;;
65328;SDS011;51941;52.210;5.158;2023-07-31T07:36:07;2.60;;;1.13;;
65328;SDS011;51941;52.210;5.158;2023-07-31T07:38:35;2.13;;;0.98;;
65328;SDS011;51941;52.210;5.158;2023-07-31T07:41:02;1.75;;;0.90;;
65328;SDS011;51941;52.210;5.158;2023-07-31T07:43:30;2.50;;;1.00;;
65328;SDS011;51941;52.210;5.158;2023-07-31T07:45:57;1.85;;;1.15;;
65328;SDS011;51941;52.210;5.158;2023-07-31T07:48:23;2.08;;;1.10;;
65328;SDS011;51941;52.210;5.158;2023-07-31T07:50:50;2.63;;;1.25;;
65328;SDS011;51941;52.210;5.158;2023-07-31T07:53:17;1.50;;;1.05;;
65328;SDS011;51941;52.210;5.158;2023-07-31T07:55:44;2.75;;;1.00;;
65328;SDS011;51941;52.210;5.158;2023-07-31T07:58:10;1.40;;;0.77;;
65328;SDS011;51941;52.210;5.158;2023-07-31T08:00:39;1.35;;;0.80;;
65328;SDS011;51941;52.210;5.158;2023-07-31T08:03:05;0.90;;;0.90;;
65328;SDS011;51941;52.210;5.158;2023-07-31T08:05:32;1.70;;;0.80;;
65328;SDS011;51941;52.210;5.158;2023-07-31T08:08:00;1.13;;;0.60;;
65328;SDS011;51941;52.210;5.158;2023-07-31T08:10:26;1.10;;;0.65;;
65328;SDS011;51941;52.210;5.158;2023-07-31T08:12:53;0.82;;;0.77;;
65328;SDS011;51941;52.210;5.158;2023-07-31T08:15:20;2.35;;;0.70;;
65328;SDS011;51941;52.210;5.158;2023-07-31T08:17:48;0.88;;;0.60;;
65328;SDS011;51941;52.210;5.158;2023-07-31T08:20:15;0.85;;;0.60;;
65328;SDS011;51941;52.210;5.158;2023-07-31T08:22:42;0.70;;;0.60;;
65328;SDS011;51941;52.210;5.158;2023-07-31T08:25:08;0.43;;;0.40;;
65328;SDS011;51941;52.210;5.158;2023-07-31T08:27:35;0.65;;;0.65;;
65328;SDS011;51941;52.210;5.158;2023-07-31T08:30:02;1.45;;;0.70;;
65328;SDS011;51941;52.210;5.158;2023-07-31T08:32:29;0.60;;;0.45;;
65328;SDS011;51941;52.210;5.158;2023-07-31T08:34:57;0.95;;;0.50;;
65328;SDS011;51941;52.210;5.158;2023-07-31T08:37:24;1.35;;;0.80;;
65328;SDS011;51941;52.210;5.158;2023-07-31T08:39:51;1.23;;;0.60;;
65328;SDS011;51941;52.210;5.158;2023-07-31T08:42:18;1.10;;;0.70;;
65328;SDS011;51941;52.210;5.158;2023-07-31T08:44:45;1.33;;;0.55;;
65328;SDS011;51941;52.210;5.158;2023-07-31T08:47:13;0.68;;;0.60;;
65328;SDS011;51941;52.210;5.158;2023-07-31T08:52:11;0.40;;;0.40;;
65328;SDS011;51941;52.210;5.158;2023-07-31T08:54:38;0.88;;;0.47;;
65328;SDS011;51941;52.210;5.158;2023-07-31T08:57:05;0.85;;;0.40;;
65328;SDS011;51941;52.210;5.158;2023-07-31T08:59:34;0.40;;;0.40;;
65328;SDS011;51941;52.210;5.158;2023-07-31T09:02:03;0.57;;;0.35;;
65328;SDS011;51941;52.210;5.158;2023-07-31T09:04:34;0.68;;;0.30;;
65328;SDS011;51941;52.210;5.158;2023-07-31T09:07:01;0.57;;;0.40;;
65328;SDS011;51941;52.210;5.158;2023-07-31T09:09:31;0.65;;;0.30;;
65328;SDS011;51941;52.210;5.158;2023-07-31T09:11:58;0.45;;;0.30;;
65328;SDS011;51941;52.210;5.158;2023-07-31T09:14:25;0.60;;;0.28;;
65328;SDS011;51941;52.210;5.158;2023-07-31T09:16:53;0.50;;;0.30;;
65328;SDS011;51941;52.210;5.158;2023-07-31T09:19:24;0.55;;;0.40;;
65328;SDS011;51941;52.210;5.158;2023-07-31T09:21:51;0.32;;;0.32;;
65328;SDS011;51941;52.210;5.158;2023-07-31T09:24:24;0.70;;;0.40;;
65328;SDS011;51941;52.210;5.158;2023-07-31T09:26:54;0.68;;;0.35;;
65328;SDS011;51941;52.210;5.158;2023-07-31T09:29:22;0.63;;;0.40;;
65328;SDS011;51941;52.210;5.158;2023-07-31T09:31:50;0.45;;;0.45;;
65328;SDS011;51941;52.210;5.158;2023-07-31T09:34:17;0.40;;;0.30;;
65328;SDS011;51941;52.210;5.158;2023-07-31T09:36:44;0.47;;;0.20;;
65328;SDS011;51941;52.210;5.158;2023-07-31T09:39:13;0.93;;;0.33;;
65328;SDS011;51941;52.210;5.158;2023-07-31T09:41:42;0.30;;;0.20;;
65328;SDS011;51941;52.210;5.158;2023-07-31T09:44:11;0.55;;;0.30;;
65328;SDS011;51941;52.210;5.158;2023-07-31T09:46:38;0.35;;;0.30;;
65328;SDS011;51941;52.210;5.158;2023-07-31T09:49:06;0.32;;;0.30;;
65328;SDS011;51941;52.210;5.158;2023-07-31T09:51:34;2.63;;;0.40;;
65328;SDS011;51941;52.210;5.158;2023-07-31T09:54:10;0.50;;;0.40;;
65328;SDS011;51941;52.210;5.158;2023-07-31T09:56:39;0.52;;;0.30;;
65328;SDS011;51941;52.210;5.158;2023-07-31T09:59:09;0.50;;;0.35;;
65328;SDS011;51941;52.210;5.158;2023-07-31T10:01:39;0.88;;;0.38;;
65328;SDS011;51941;52.210;5.158;2023-07-31T10:04:07;0.70;;;0.50;;
65328;SDS011;51941;52.210;5.158;2023-07-31T10:06:35;0.93;;;0.47;;
65328;SDS011;51941;52.210;5.158;2023-07-31T10:09:03;4.35;;;0.70;;
65328;SDS011;51941;52.210;5.158;2023-07-31T10:11:34;0.80;;;0.63;;
65328;SDS011;51941;52.210;5.158;2023-07-31T10:14:07;1.23;;;0.52;;
65328;SDS011;51941;52.210;5.158;2023-07-31T10:16:37;1.33;;;0.63;;
65328;SDS011;51941;52.210;5.158;2023-07-31T10:19:05;1.42;;;0.80;;
65328;SDS011;51941;52.210;5.158;2023-07-31T10:21:33;1.42;;;0.70;;
65328;SDS011;51941;52.210;5.158;2023-07-31T10:24:02;2.03;;;0.70;;
65328;SDS011;51941;52.210;5.158;2023-07-31T10:26:30;2.42;;;0.80;;
65328;SDS011;51941;52.210;5.158;2023-07-31T10:28:57;1.90;;;0.70;;
65328;SDS011;51941;52.210;5.158;2023-07-31T10:31:25;1.77;;;0.80;;
65328;SDS011;51941;52.210;5.158;2023-07-31T10:33:54;2.22;;;1.05;;
65328;SDS011;51941;52.210;5.158;2023-07-31T10:36:23;1.27;;;0.95;;
65328;SDS011;51941;52.210;5.158;2023-07-31T10:38:50;1.63;;;1.00;;
65328;SDS011;51941;52.210;5.158;2023-07-31T10:41:17;1.58;;;0.80;;
65328;SDS011;51941;52.210;5.158;2023-07-31T10:43:45;1.73;;;1.08;;
65328;SDS011;51941;52.210;5.158;2023-07-31T10:46:13;3.55;;;0.98;;
65328;SDS011;51941;52.210;5.158;2023-07-31T10:48:40;1.98;;;1.10;;
65328;SDS011;51941;52.210;5.158;2023-07-31T10:51:09;1.50;;;0.90;;
65328;SDS011;51941;52.210;5.158;2023-07-31T10:53:37;1.48;;;0.98;;
65328;SDS011;51941;52.210;5.158;2023-07-31T10:56:07;2.83;;;1.00;;
65328;SDS011;51941;52.210;5.158;2023-07-31T10:58:35;1.52;;;1.20;;
65328;SDS011;51941;52.210;5.158;2023-07-31T11:01:04;1.25;;;0.90;;
65328;SDS011;51941;52.210;5.158;2023-07-31T11:03:42;1.33;;;0.98;;
65328;SDS011;51941;52.210;5.158;2023-07-31T11:06:12;3.35;;;1.20;;
65328;SDS011;51941;52.210;5.158;2023-07-31T11:08:42;2.47;;;1.30;;
65328;SDS011;51941;52.210;5.158;2023-07-31T11:11:10;4.75;;;1.42;;
65328;SDS011;51941;52.210;5.158;2023-07-31T11:13:43;3.22;;;1.48;;
65328;SDS011;51941;52.210;5.158;2023-07-31T11:16:11;3.97;;;1.30;;
65328;SDS011;51941;52.210;5.158;2023-07-31T11:18:39;3.03;;;1.30;;
65328;SDS011;51941;52.210;5.158;2023-07-31T11:21:07;4.50;;;1.40;;
65328;SDS011;51941;52.210;5.158;2023-07-31T11:23:37;3.38;;;1.58;;
65328;SDS011;51941;52.210;5.158;2023-07-31T11:26:05;6.63;;;1.73;;
65328;SDS011;51941;52.210;5.158;2023-07-31T11:28:33;3.72;;;1.30;;
65328;SDS011;51941;52.210;5.158;2023-07-31T11:31:00;6.05;;;1.80;;
65328;SDS011;51941;52.210;5.158;2023-07-31T11:33:28;2.67;;;1.40;;
65328;SDS011;51941;52.210;5.158;2023-07-31T11:35:54;3.25;;;1.38;;
65328;SDS011;51941;52.210;5.158;2023-07-31T11:38:21;6.53;;;1.80;;
65328;SDS011;51941;52.210;5.158;2023-07-31T11:40:51;6.25;;;2.17;;
65328;SDS011;51941;52.210;5.158;2023-07-31T11:43:20;2.35;;;1.17;;
65328;SDS011;51941;52.210;5.158;2023-07-31T11:45:47;4.57;;;1.75;;
65328;SDS011;51941;52.210;5.158;2023-07-31T11:48:21;3.92;;;1.50;;
65328;SDS011;51941;52.210;5.158;2023-07-31T11:50:50;3.65;;;1.58;;
65328;SDS011;51941;52.210;5.158;2023-07-31T11:53:19;5.28;;;1.67;;
65328;SDS011;51941;52.210;5.158;2023-07-31T11:55:48;4.85;;;1.42;;
65328;SDS011;51941;52.210;5.158;2023-07-31T11:58:17;3.75;;;1.70;;
65328;SDS011;51941;52.210;5.158;2023-07-31T12:00:45;5.75;;;1.83;;
65328;SDS011;51941;52.210;5.158;2023-07-31T12:03:12;4.93;;;1.58;;
65328;SDS011;51941;52.210;5.158;2023-07-31T12:05:39;3.92;;;1.50;;
65328;SDS011;51941;52.210;5.158;2023-07-31T12:08:10;2.45;;;1.38;;
65328;SDS011;51941;52.210;5.158;2023-07-31T12:10:38;3.15;;;1.40;;
65328;SDS011;51941;52.210;5.158;2023-07-31T12:13:07;5.55;;;1.92;;
65328;SDS011;51941;52.210;5.158;2023-07-31T12:15:39;3.67;;;1.58;;
65328;SDS011;51941;52.210;5.158;2023-07-31T12:18:07;3.83;;;1.80;;
65328;SDS011;51941;52.210;5.158;2023-07-31T12:20:39;2.15;;;1.65;;
65328;SDS011;51941;52.210;5.158;2023-07-31T12:23:07;4.22;;;1.55;;
65328;SDS011;51941;52.210;5.158;2023-07-31T12:25:39;4.20;;;1.17;;
65328;SDS011;51941;52.210;5.158;2023-07-31T12:28:07;4.50;;;1.70;;
65328;SDS011;51941;52.210;5.158;2023-07-31T12:30:37;2.78;;;1.30;;
65328;SDS011;51941;52.210;5.158;2023-07-31T12:33:05;3.40;;;1.45;;
65328;SDS011;51941;52.210;5.158;2023-07-31T12:35:40;4.80;;;1.70;;
65328;SDS011;51941;52.210;5.158;2023-07-31T12:38:09;6.00;;;1.77;;
65328;SDS011;51941;52.210;5.158;2023-07-31T12:40:37;4.97;;;1.80;;
65328;SDS011;51941;52.210;5.158;2023-07-31T12:43:05;2.97;;;1.85;;
65328;SDS011;51941;52.210;5.158;2023-07-31T12:45:33;4.57;;;1.98;;
65328;SDS011;51941;52.210;5.158;2023-07-31T12:48:00;3.72;;;1.63;;
65328;SDS011;51941;52.210;5.158;2023-07-31T12:50:27;3.88;;;2.00;;
65328;SDS011;51941;52.210;5.158;2023-07-31T12:52:54;4.07;;;1.80;;
65328;SDS011;51941;52.210;5.158;2023-07-31T12:55:21;4.88;;;2.30;;
65328;SDS011;51941;52.210;5.158;2023-07-31T12:57:48;3.80;;;2.25;;
65328;SDS011;51941;52.210;5.158;2023-07-31T13:00:16;3.92;;;2.53;;
65328;SDS011;51941;52.210;5.158;2023-07-31T13:02:44;3.20;;;2.30;;
65328;SDS011;51941;52.210;5.158;2023-07-31T13:05:10;4.68;;;2.22;;
65328;SDS011;51941;52.210;5.158;2023-07-31T13:07:38;4.40;;;2.40;;
65328;SDS011;51941;52.210;5.158;2023-07-31T13:10:06;4.97;;;2.40;;
65328;SDS011;51941;52.210;5.158;2023-07-31T13:12:33;4.68;;;2.38;;
65328;SDS011;51941;52.210;5.158;2023-07-31T13:15:00;4.15;;;2.33;;
65328;SDS011;51941;52.210;5.158;2023-07-31T13:17:27;3.20;;;2.20;;
65328;SDS011;51941;52.210;5.158;2023-07-31T13:19:55;4.57;;;2.63;;
65328;SDS011;51941;52.210;5.158;2023-07-31T13:22:22;4.45;;;2.30;;
65328;SDS011;51941;52.210;5.158;2023-07-31T13:24:48;3.17;;;1.90;;
65328;SDS011;51941;52.210;5.158;2023-07-31T13:27:15;3.78;;;2.08;;
65328;SDS011;51941;52.210;5.158;2023-07-31T13:29:44;4.47;;;1.95;;
65328;SDS011;51941;52.210;5.158;2023-07-31T13:32:11;3.78;;;1.80;;
65328;SDS011;51941;52.210;5.158;2023-07-31T13:34:38;3.65;;;1.65;;
65328;SDS011;51941;52.210;5.158;2023-07-31T13:37:06;3.85;;;1.48;;
65328;SDS011;51941;52.210;5.158;2023-07-31T13:39:33;3.92;;;1.58;;
65328;SDS011;51941;52.210;5.158;2023-07-31T13:42:00;2.80;;;1.80;;
65328;SDS011;51941;52.210;5.158;2023-07-31T13:44:26;2.53;;;1.77;;
65328;SDS011;51941;52.210;5.158;2023-07-31T13:46:53;4.88;;;1.73;;
65328;SDS011;51941;52.210;5.158;2023-07-31T13:49:20;3.83;;;1.50;;
65328;SDS011;51941;52.210;5.158;2023-07-31T13:51:46;4.47;;;1.33;;
65328;SDS011;51941;52.210;5.158;2023-07-31T13:54:15;4.22;;;1.48;;
65328;SDS011;51941;52.210;5.158;2023-07-31T13:56:42;3.10;;;1.30;;
65328;SDS011;51941;52.210;5.158;2023-07-31T13:59:09;3.75;;;1.40;;
65328;SDS011;51941;52.210;5.158;2023-07-31T14:01:36;2.28;;;1.17;;
65328;SDS011;51941;52.210;5.158;2023-07-31T14:04:03;3.15;;;1.42;;
65328;SDS011;51941;52.210;5.158;2023-07-31T14:06:30;2.05;;;1.33;;
65328;SDS011;51941;52.210;5.158;2023-07-31T14:08:57;1.60;;;1.33;;
65328;SDS011;51941;52.210;5.158;2023-07-31T14:11:25;1.63;;;1.20;;
65328;SDS011;51941;52.210;5.158;2023-07-31T14:13:52;1.50;;;1.20;;
65328;SDS011;51941;52.210;5.158;2023-07-31T14:16:19;1.42;;;1.00;;
65328;SDS011;51941;52.210;5.158;2023-07-31T14:18:45;2.08;;;1.10;;
65328;SDS011;51941;52.210;5.158;2023-07-31T14:21:12;1.38;;;0.90;;
65328;SDS011;51941;52.210;5.158;2023-07-31T14:23:39;3.33;;;1.30;;
65328;SDS011;51941;52.210;5.158;2023-07-31T14:26:06;1.40;;;1.10;;
65328;SDS011;51941;52.210;5.158;2023-07-31T14:28:34;0.95;;;0.88;;
65328;SDS011;51941;52.210;5.158;2023-07-31T14:31:01;1.25;;;1.00;;
65328;SDS011;51941;52.210;5.158;2023-07-31T14:33:27;1.60;;;1.00;;
65328;SDS011;51941;52.210;5.158;2023-07-31T14:35:54;1.70;;;0.90;;
65328;SDS011;51941;52.210;5.158;2023-07-31T14:38:21;1.13;;;0.98;;
65328;SDS011;51941;52.210;5.158;2023-07-31T14:40:51;1.17;;;0.98;;
65328;SDS011;51941;52.210;5.158;2023-07-31T14:43:18;0.82;;;0.80;;
65328;SDS011;51941;52.210;5.158;2023-07-31T14:45:46;0.68;;;0.68;;
65328;SDS011;51941;52.210;5.158;2023-07-31T14:48:12;0.82;;;0.60;;
65328;SDS011;51941;52.210;5.158;2023-07-31T14:50:39;0.70;;;0.50;;